Time;durP1;ratioP1;P1;durP2;ratioP2;P2;SDS_P1;SDS_P2;PMS_P1;PMS_P2;Temp;Humidity;BMP_temperature;BMP_pressure;BME280_temperature;BME280_humidity;BME280_pressure;Samples;Min_cycle;Max_cycle;Signal;HPM_P1;HPM_P2
2021/03/14 00:00:47;;;;;;;0.52;0.52;;;;;;;17.87;32.38;96825.63;5074556;28;20052;-87
2021/03/14 00:03:16;;;;;;;0.40;0.40;;;;;;;19.08;31.38;96833.22;5073464;28;20054;-87
2021/03/14 00:05:45;;;;;;;1.45;0.32;;;;;;;18.59;31.51;96824.72;5076031;28;20102;-86
2021/03/14 00:08:13;;;;;;;1.73;0.50;;;;;;;18.43;32.54;96832.16;5076347;28;20059;-86
2021/03/14 00:10:42;;;;;;;0.63;0.55;;;;;;;18.05;32.90;96830.84;5094918;28;20032;-87
2021/03/14 00:13:09;;;;;;;0.93;0.40;;;;;;;18.44;32.07;96831.72;5081894;28;20040;-86
2021/03/14 00:15:35;;;;;;;0.40;0.40;;;;;;;19.65;29.86;96830.72;5074312;28;20502;-86
2021/03/14 00:18:01;;;;;;;0.50;0.30;;;;;;;20.21;28.53;96833.31;5075005;28;20033;-86
2021/03/14 00:20:28;;;;;;;0.43;0.35;;;;;;;20.29;28.60;96838.28;5078404;28;20040;-86
2021/03/14 00:22:54;;;;;;;0.50;0.40;;;;;;;20.14;28.56;96839.84;5065964;28;20043;-86
2021/03/14 00:25:20;;;;;;;0.30;0.30;;;;;;;21.50;26.56;96849.56;5075098;28;20029;-86
2021/03/14 00:27:46;;;;;;;0.73;0.55;;;;;;;22.20;25.39;96836.13;5074698;28;20025;-86
2021/03/14 00:30:15;;;;;;;1.52;0.70;;;;;;;23.48;23.54;96815.50;5074760;28;20131;-86
2021/03/14 00:32:42;;;;;;;1.27;0.80;;;;;;;24.20;22.37;96803.72;5066287;28;20060;-86
2021/03/14 00:35:14;;;;;;;1.27;0.85;;;;;;;24.70;21.83;96777.84;5075182;28;20036;-86
2021/03/14 00:37:40;;;;;;;1.63;0.80;;;;;;;24.80;21.31;96787.06;5065076;28;20029;-86
2021/03/14 00:40:08;;;;;;;0.60;0.60;;;;;;;24.69;21.40;96774.25;5074818;28;20032;-86
2021/03/14 00:42:34;;;;;;;1.15;0.57;;;;;;;24.63;21.31;96769.75;5073429;28;20035;-86
2021/03/14 00:45:01;;;;;;;0.90;0.77;;;;;;;24.37;21.47;96763.69;5073846;28;20499;-86
2021/03/14 00:47:27;;;;;;;1.10;0.70;;;;;;;24.01;21.99;96775.59;5075927;28;20044;-86
2021/03/14 00:49:53;;;;;;;0.50;0.50;;;;;;;25.24;20.42;96776.97;5074650;28;20048;-85
2021/03/14 00:52:19;;;;;;;1.02;0.73;;;;;;;24.68;21.15;96778.31;5061497;28;20067;-85
2021/03/14 00:54:46;;;;;;;0.82;0.82;;;;;;;23.93;21.58;96776.38;5073962;28;20072;-86
2021/03/14 00:57:12;;;;;;;1.33;0.82;;;;;;;24.34;21.58;96775.06;5059173;28;20123;-85
2021/03/14 00:59:38;;;;;;;3.80;1.23;;;;;;;24.22;21.64;96761.97;5073790;28;20036;-86
2021/03/14 01:02:05;;;;;;;1.85;0.88;;;;;;;24.28;21.35;96768.50;5067097;28;20111;-86
2021/03/14 01:04:31;;;;;;;2.25;1.27;;;;;;;24.50;20.94;96778.34;5074437;28;20037;-85
2021/03/14 01:06:57;;;;;;;1.00;0.90;;;;;;;24.55;20.83;96785.34;5071295;28;20124;-85
2021/03/14 01:09:23;;;;;;;2.92;1.67;;;;;;;23.66;21.83;96793.91;5073192;28;20039;-86
2021/03/14 01:11:49;;;;;;;0.88;0.60;;;;;;;23.50;22.28;96801.78;5074223;28;20104;-86
2021/03/14 01:14:15;;;;;;;2.50;1.33;;;;;;;23.70;21.96;96807.78;5073797;28;20047;-86
2021/03/14 01:16:42;;;;;;;5.05;3.30;;;;;;;23.62;22.20;96807.28;5067373;28;20105;-85
2021/03/14 01:19:08;;;;;;;1.90;0.93;;;;;;;23.90;21.76;96805.34;5073554;28;20056;-86
2021/03/14 01:21:34;;;;;;;1.83;0.85;;;;;;;23.72;22.13;96806.06;5072949;28;20047;-85
2021/03/14 01:24:00;;;;;;;1.50;0.88;;;;;;;24.60;20.69;96798.75;5074405;28;20115;-86
2021/03/14 01:26:26;;;;;;;1.48;1.13;;;;;;;23.92;21.32;96795.22;5061819;28;20029;-85
2021/03/14 01:28:52;;;;;;;1.50;0.77;;;;;;;25.00;20.37;96792.94;5073582;28;20032;-85
2021/03/14 01:31:18;;;;;;;3.20;1.20;;;;;;;25.32;20.09;96803.50;5070851;28;20025;-85
2021/03/14 01:33:45;;;;;;;1.40;0.80;;;;;;;24.17;21.08;96811.03;5073967;28;20074;-85
2021/03/14 01:36:11;;;;;;;0.60;0.50;;;;;;;24.71;20.50;96799.81;5073128;28;20074;-85
2021/03/14 01:38:37;;;;;;;1.02;0.60;;;;;;;25.19;19.84;96806.50;5073486;28;20577;-85
2021/03/14 01:41:03;;;;;;;0.85;0.60;;;;;;;25.46;19.64;96796.47;5073680;28;20388;-86
2021/03/14 01:43:35;;;;;;;1.17;0.50;;;;;;;25.62;19.44;96770.78;5073057;28;20546;-86
2021/03/14 01:46:05;;;;;;;0.95;0.60;;;;;;;25.61;19.17;96757.97;5080086;28;20035;-86
2021/03/14 01:48:32;;;;;;;0.38;0.38;;;;;;;25.62;18.96;96774.38;5059626;28;20500;-86
2021/03/14 01:50:59;;;;;;;2.30;1.00;;;;;;;25.52;19.05;96772.84;5073905;28;20028;-85
2021/03/14 01:53:25;;;;;;;1.50;1.10;;;;;;;25.10;19.16;96770.00;5080289;28;20035;-86
2021/03/14 01:55:52;;;;;;;2.40;1.52;;;;;;;25.66;18.60;96769.34;5068206;28;20036;-86
2021/03/14 01:58:20;;;;;;;5.00;2.53;;;;;;;25.03;19.34;96758.31;5073430;28;20025;-86
2021/03/14 02:00:46;;;;;;;10.63;4.88;;;;;;;24.28;20.13;96768.50;5077911;28;20535;-86
2021/03/14 02:03:13;;;;;;;4.38;2.13;;;;;;;25.00;19.09;96779.69;5072204;28;20040;-86
2021/03/14 02:05:40;;;;;;;4.03;1.88;;;;;;;24.52;19.54;96792.69;5073434;28;20551;-85
2021/03/14 02:08:06;;;;;;;4.80;2.45;;;;;;;24.39;19.77;96803.25;5073014;28;20086;-85
2021/03/14 02:10:34;;;;;;;1.88;1.02;;;;;;;24.47;19.64;96812.94;5073350;28;20035;-86
2021/03/14 02:13:04;;;;;;;1.13;0.80;;;;;;;23.14;20.84;96805.94;5073200;28;20060;-85
2021/03/14 02:15:33;;;;;;;0.85;0.70;;;;;;;24.02;20.08;96801.63;5074466;28;20119;-86
2021/03/14 02:18:02;;;;;;;1.58;0.60;;;;;;;23.85;19.85;96801.13;5072888;28;20404;-85
2021/03/14 02:20:31;;;;;;;2.40;0.82;;;;;;;24.12;19.72;96805.25;5072985;28;20031;-86
2021/03/14 02:23:31;;;;;;;1.40;0.63;;;;;;;24.82;18.66;96801.41;5084464;28;20074;-86
2021/03/14 02:26:30;;;;;;;2.25;0.77;;;;;;;24.84;18.50;96796.09;5072791;28;20037;-86
2021/03/14 02:28:56;;;;;;;0.80;0.55;;;;;;;23.84;19.70;96802.38;5070939;28;20049;-85
2021/03/14 02:31:28;;;;;;;2.42;0.85;;;;;;;24.68;18.97;96795.16;5066655;28;20455;-86
2021/03/14 02:34:06;;;;;;;1.27;0.40;;;;;;;25.72;17.75;96795.53;5065934;28;20036;-86
2021/03/14 02:36:35;;;;;;;3.63;1.10;;;;;;;25.70;17.70;96786.03;5068198;28;20051;-85
2021/03/14 02:39:04;;;;;;;5.30;1.70;;;;;;;25.94;17.43;96776.38;5053771;28;20053;-86
2021/03/14 02:41:31;;;;;;;1.45;0.70;;;;;;;26.66;16.89;96780.72;5069138;28;20087;-86
2021/03/14 02:43:58;;;;;;;1.02;0.60;;;;;;;27.09;16.40;96770.00;5060787;28;20054;-86
2021/03/14 02:46:28;;;;;;;0.75;0.40;;;;;;;27.27;16.05;96753.66;5072098;28;20064;-86
2021/03/14 02:48:56;;;;;;;2.92;0.73;;;;;;;27.26;16.18;96754.13;5070892;28;20055;-86
2021/03/14 02:51:23;;;;;;;2.17;1.25;;;;;;;26.89;16.18;96778.31;5058673;28;20075;-86
2021/03/14 02:53:50;;;;;;;1.33;0.60;;;;;;;26.65;16.55;96790.41;5064333;28;20480;-86
2021/03/14 02:56:16;;;;;;;2.30;0.70;;;;;;;26.54;16.64;96766.88;5057140;28;20028;-86
2021/03/14 02:58:43;;;;;;;3.38;1.00;;;;;;;26.38;16.66;96765.31;5072240;28;20131;-86
2021/03/14 03:01:10;;;;;;;3.45;1.13;;;;;;;26.84;16.28;96779.78;5071297;28;20029;-86
2021/03/14 03:03:36;;;;;;;3.25;1.02;;;;;;;26.83;16.53;96781.06;5071388;28;20037;-85
2021/03/14 03:06:04;;;;;;;1.52;0.88;;;;;;;26.91;16.24;96787.09;5071184;28;20387;-86
2021/03/14 03:08:32;;;;;;;2.55;0.70;;;;;;;26.89;16.20;96783.97;5073059;28;20040;-86
2021/03/14 03:11:04;;;;;;;1.20;0.65;;;;;;;26.69;16.29;96784.59;5072929;28;20033;-86
2021/03/14 03:13:34;;;;;;;5.25;1.55;;;;;;;26.63;16.24;96790.13;5067823;28;20028;-86
2021/03/14 03:16:01;;;;;;;1.92;1.00;;;;;;;26.06;16.89;96777.41;5072051;28;20372;-86
2021/03/14 03:18:28;;;;;;;1.83;1.00;;;;;;;25.96;16.71;96778.69;5070659;28;20127;-86
2021/03/14 03:20:55;;;;;;;4.32;1.30;;;;;;;25.74;17.01;96783.84;5075619;28;20496;-86
2021/03/14 03:23:21;;;;;;;5.55;1.55;;;;;;;25.64;17.02;96790.75;5075109;28;20032;-86
2021/03/14 03:25:47;;;;;;;3.30;1.17;;;;;;;24.95;17.82;96785.94;5057698;28;20086;-86
2021/03/14 03:28:15;;;;;;;2.88;1.20;;;;;;;25.69;17.05;96788.09;5055380;28;20492;-86
2021/03/14 03:30:42;;;;;;;4.05;1.45;;;;;;;25.46;17.07;96776.78;5068044;28;20044;-86
2021/03/14 03:33:09;;;;;;;3.30;1.48;;;;;;;25.73;16.80;96774.63;5075121;28;20032;-86
2021/03/14 03:35:35;;;;;;;1.38;1.02;;;;;;;25.07;17.52;96768.13;5076598;28;20056;-86
2021/03/14 03:38:02;;;;;;;2.72;1.42;;;;;;;24.61;17.72;96767.41;5074533;28;20510;-86
2021/03/14 03:40:30;;;;;;;1.75;0.45;;;;;;;24.90;17.83;96786.56;5076356;28;20025;-86
2021/03/14 03:43:09;;;;;;;1.27;0.60;;;;;;;25.20;17.25;96796.03;5075315;28;20086;-86
2021/03/14 03:45:39;;;;;;;2.65;0.82;;;;;;;25.41;17.16;96795.78;5074069;28;20032;-86
2021/03/14 03:48:07;;;;;;;0.77;0.40;;;;;;;25.67;17.15;96795.44;5076540;28;20032;-86
2021/03/14 03:50:35;;;;;;;1.38;0.50;;;;;;;26.05;16.57;96793.50;5075842;28;20036;-86
2021/03/14 03:53:01;;;;;;;0.82;0.40;;;;;;;25.41;17.52;96786.59;5071454;28;20400;-86
2021/03/14 03:55:28;;;;;;;0.57;0.20;;;;;;;25.48;17.08;96782.72;5079541;28;20093;-86
2021/03/14 03:57:55;;;;;;;0.85;0.30;;;;;;;25.46;16.81;96785.22;5074528;28;20029;-86
2021/03/14 04:00:22;;;;;;;0.68;0.35;;;;;;;25.91;16.83;96777.31;5075951;28;20040;-86
2021/03/14 04:02:49;;;;;;;0.77;0.30;;;;;;;26.12;16.55;96771.91;5074689;28;20028;-86
2021/03/14 04:05:17;;;;;;;1.98;0.30;;;;;;;26.00;16.76;96768.03;5072274;28;20416;-85
2021/03/14 04:07:46;;;;;;;0.38;0.25;;;;;;;25.83;16.63;96772.53;5068837;28;20029;-86
2021/03/14 04:10:17;;;;;;;0.30;0.20;;;;;;;26.16;16.43;96781.75;5055827;28;20053;-86
2021/03/14 04:12:45;;;;;;;0.40;0.28;;;;;;;25.94;16.60;96782.00;5071999;28;20082;-86
2021/03/14 04:15:14;;;;;;;1.20;0.63;;;;;;;26.20;16.56;96787.97;5074984;28;20035;-86
2021/03/14 04:17:41;;;;;;;1.23;0.90;;;;;;;26.32;16.58;96801.00;5060330;28;20033;-86
2021/03/14 04:20:14;;;;;;;0.90;0.50;;;;;;;26.47;16.12;96799.00;5070004;28;20060;-87
2021/03/14 04:22:46;;;;;;;1.45;0.60;;;;;;;26.32;16.40;96791.78;5074584;28;20024;-86
2021/03/14 04:25:14;;;;;;;0.50;0.32;;;;;;;26.23;16.38;96792.63;5074680;28;20043;-86
2021/03/14 04:27:40;;;;;;;1.88;1.00;;;;;;;26.33;16.17;96796.94;5075022;28;20032;-86
2021/03/14 04:30:08;;;;;;;1.60;0.80;;;;;;;26.47;16.30;96795.41;5075074;28;20029;-86
2021/03/14 04:32:36;;;;;;;1.02;0.68;;;;;;;26.42;16.28;96798.91;5073993;28;20033;-86
2021/03/14 04:35:04;;;;;;;1.00;0.60;;;;;;;26.63;16.10;96792.16;5075180;28;20029;-86
2021/03/14 04:37:31;;;;;;;0.77;0.70;;;;;;;26.55;15.97;96796.59;5075187;28;20036;-86
2021/03/14 04:39:57;;;;;;;1.67;0.90;;;;;;;26.24;16.32;96788.56;5074807;28;20040;-86
2021/03/14 04:42:23;;;;;;;0.90;0.55;;;;;;;26.24;16.45;96791.38;5075088;28;20496;-86
2021/03/14 04:44:51;;;;;;;0.38;0.30;;;;;;;25.76;16.67;96786.94;5089082;28;20377;-87
2021/03/14 04:47:17;;;;;;;0.38;0.30;;;;;;;26.04;16.60;96791.16;5072792;28;20081;-87
2021/03/14 04:49:43;;;;;;;1.42;0.20;;;;;;;25.58;16.98;96799.03;5073750;28;20112;-87
2021/03/14 04:52:11;;;;;;;0.50;0.40;;;;;;;25.39;17.12;96805.97;5057776;28;20068;-86
2021/03/14 04:54:39;;;;;;;0.20;0.20;;;;;;;25.79;16.76;96795.19;5064516;28;20040;-86
2021/03/14 04:57:06;;;;;;;0.82;0.30;;;;;;;25.61;17.05;96800.13;5071509;28;20592;-86
2021/03/14 04:59:35;;;;;;;0.47;0.32;;;;;;;25.71;16.98;96785.56;5075021;28;20067;-86
2021/03/14 05:02:03;;;;;;;0.30;0.30;;;;;;;25.75;16.75;96791.00;5063208;28;20068;-86
2021/03/14 05:04:32;;;;;;;0.50;0.30;;;;;;;24.77;17.68;96788.78;5072067;28;20575;-87
2021/03/14 05:07:00;;;;;;;0.20;0.20;;;;;;;24.33;18.11;96795.94;5073275;28;20078;-86
2021/03/14 05:09:27;;;;;;;1.17;0.52;;;;;;;24.83;17.75;96789.72;5074796;28;20382;-87
2021/03/14 05:11:54;;;;;;;3.50;0.50;;;;;;;24.84;17.68;96784.88;5074069;28;20031;-86
2021/03/14 05:14:22;;;;;;;0.47;0.38;;;;;;;25.23;17.29;96781.81;5067410;28;20043;-86
2021/03/14 05:16:49;;;;;;;1.05;0.40;;;;;;;24.05;18.41;96784.66;5067988;28;20033;-86
2021/03/14 05:19:16;;;;;;;0.52;0.30;;;;;;;24.51;18.25;96787.53;5074145;28;20028;-86
2021/03/14 05:21:42;;;;;;;0.40;0.20;;;;;;;25.31;17.31;96783.06;5073402;28;20032;-87
2021/03/14 05:24:13;;;;;;;0.60;0.28;;;;;;;24.94;17.77;96773.16;5074380;28;20033;-86
2021/03/14 05:26:44;;;;;;;0.30;0.20;;;;;;;24.80;17.67;96779.44;5073466;28;20059;-86
2021/03/14 05:29:12;;;;;;;0.40;0.28;;;;;;;25.02;17.77;96765.19;5074300;28;20048;-86
2021/03/14 05:31:40;;;;;;;0.43;0.28;;;;;;;24.44;18.20;96765.38;5073088;28;20040;-86
2021/03/14 05:34:12;;;;;;;0.77;0.28;;;;;;;25.25;17.40;96764.50;5073374;28;20025;-86
2021/03/14 05:36:39;;;;;;;1.10;0.30;;;;;;;25.13;17.60;96769.06;5071554;28;20035;-87
2021/03/14 05:39:06;;;;;;;0.47;0.20;;;;;;;25.50;17.10;96763.34;5054433;28;20037;-87
2021/03/14 05:41:36;;;;;;;0.95;0.43;;;;;;;25.09;17.56;96764.84;5061782;28;20556;-87
2021/03/14 05:44:03;;;;;;;0.30;0.30;;;;;;;24.73;17.68;96768.50;5073587;28;20035;-86
2021/03/14 05:46:29;;;;;;;0.50;0.30;;;;;;;25.07;17.46;96765.31;5065594;28;20082;-87
2021/03/14 05:48:56;;;;;;;1.55;0.50;;;;;;;25.01;17.33;96767.22;5052658;28;20029;-86
2021/03/14 05:51:30;;;;;;;0.90;0.68;;;;;;;25.45;17.16;96767.56;5067092;28;20040;-86
2021/03/14 05:53:59;;;;;;;0.63;0.35;;;;;;;25.18;17.06;96762.78;5072099;28;20044;-87
2021/03/14 05:56:26;;;;;;;0.50;0.30;;;;;;;25.37;17.11;96760.69;5066774;28;20504;-86
2021/03/14 05:58:54;;;;;;;0.95;0.40;;;;;;;24.30;17.86;96766.78;5073034;28;20044;-86
2021/03/14 06:01:28;;;;;;;0.85;0.30;;;;;;;24.79;17.84;96761.03;5069149;28;20063;-87
2021/03/14 06:03:55;;;;;;;0.40;0.30;;;;;;;25.46;17.03;96771.16;5069368;28;20040;-87
2021/03/14 06:06:22;;;;;;;0.55;0.40;;;;;;;25.47;16.93;96767.09;5072688;28;20526;-87
2021/03/14 06:08:50;;;;;;;0.40;0.38;;;;;;;24.62;17.68;96780.19;5072168;28;20039;-86
2021/03/14 06:11:16;;;;;;;0.32;0.25;;;;;;;25.18;17.47;96795.75;5072367;28;20025;-86
2021/03/14 06:13:44;;;;;;;0.30;0.30;;;;;;;24.68;18.08;96786.75;5065718;28;20139;-87
2021/03/14 06:16:10;;;;;;;0.70;0.50;;;;;;;25.68;17.08;96792.13;5073181;28;20024;-86
2021/03/14 06:18:37;;;;;;;0.88;0.50;;;;;;;25.25;17.41;96796.16;5073573;28;20063;-86
2021/03/14 06:21:17;;;;;;;1.58;0.50;;;;;;;25.33;17.62;96813.47;5072745;28;20028;-86
2021/03/14 06:23:57;;;;;;;0.50;0.40;;;;;;;25.32;17.45;96801.44;5073349;28;20093;-86
2021/03/14 06:26:32;;;;;;;0.30;0.20;;;;;;;25.25;17.69;96801.78;5073292;28;20479;-86
2021/03/14 06:28:59;;;;;;;0.65;0.40;;;;;;;24.93;17.57;96808.09;5072119;28;20027;-85
2021/03/14 06:31:25;;;;;;;0.40;0.25;;;;;;;25.08;17.98;96809.03;5072036;28;20043;-84
2021/03/14 06:33:51;;;;;;;0.60;0.20;;;;;;;25.63;17.47;96822.91;5072166;28;20032;-86
2021/03/14 06:36:19;;;;;;;0.80;0.40;;;;;;;24.98;17.90;96823.53;5073015;28;20054;-85
2021/03/14 06:38:47;;;;;;;0.57;0.40;;;;;;;24.98;17.72;96809.50;5072667;28;20446;-90
2021/03/14 06:41:19;;;;;;;0.60;0.50;;;;;;;25.86;17.05;96810.94;5071949;28;20028;-87
2021/03/14 06:43:55;;;;;;;0.73;0.30;;;;;;;26.02;16.86;96808.50;5072170;28;20054;-86
2021/03/14 06:46:25;;;;;;;0.50;0.50;;;;;;;26.07;16.98;96802.22;5073158;28;20028;-86
2021/03/14 06:49:05;;;;;;;0.80;0.32;;;;;;;26.50;16.34;96805.72;5058741;28;20044;-87
2021/03/14 06:51:40;;;;;;;0.30;0.20;;;;;;;26.25;16.71;96821.06;5066752;28;20032;-87
2021/03/14 06:54:36;;;;;;;0.70;0.50;;;;;;;25.69;17.07;96829.47;5072955;28;20033;-86
2021/03/14 06:57:12;;;;;;;0.82;0.43;;;;;;;25.73;16.90;96844.91;5073883;28;20033;-87
2021/03/14 07:00:04;;;;;;;0.70;0.40;;;;;;;25.16;17.27;96845.97;5076466;28;20040;-87
2021/03/14 07:02:31;;;;;;;2.55;0.38;;;;;;;25.62;17.25;96850.28;5068850;28;20123;-86
2021/03/14 07:05:00;;;;;;;0.57;0.30;;;;;;;26.42;16.62;96847.50;5074672;28;20123;-85
2021/03/14 07:07:32;;;;;;;2.92;0.68;;;;;;;26.63;16.34;96837.19;5077444;28;20108;-85
2021/03/14 07:10:15;;;;;;;0.43;0.40;;;;;;;26.66;16.38;96822.16;5073145;28;20021;-84
2021/03/14 07:12:43;;;;;;;1.20;0.32;;;;;;;26.52;16.62;96829.31;5056638;28;20040;-85
2021/03/14 07:15:21;;;;;;;0.45;0.30;;;;;;;26.55;16.21;96836.03;5066510;28;20112;-84
2021/03/14 07:17:55;;;;;;;2.58;0.50;;;;;;;25.83;17.15;96840.81;5073631;28;20032;-83
2021/03/14 07:20:29;;;;;;;0.60;0.40;;;;;;;25.39;17.22;96837.66;5068074;28;20108;-85
2021/03/14 07:23:00;;;;;;;1.13;0.43;;;;;;;25.18;17.58;96852.69;5075357;28;20028;-85
2021/03/14 07:25:27;;;;;;;1.23;0.50;;;;;;;25.24;17.37;96845.19;5080352;28;20059;-87
2021/03/14 07:27:53;;;;;;;0.75;0.50;;;;;;;25.37;17.16;96839.38;5074701;28;20518;-86
2021/03/14 07:30:23;;;;;;;1.88;0.40;;;;;;;25.28;17.51;96848.59;5076692;28;20373;-86
2021/03/14 07:32:50;;;;;;;1.73;0.77;;;;;;;25.69;16.95;96849.16;5074922;28;20046;-87
2021/03/14 07:35:18;;;;;;;0.50;0.30;;;;;;;25.74;17.02;96840.81;5073261;28;20099;-84
2021/03/14 07:37:48;;;;;;;1.90;0.80;;;;;;;25.43;17.31;96851.53;5074806;28;20044;-85
2021/03/14 07:40:18;;;;;;;0.88;0.50;;;;;;;26.25;16.21;96854.06;5076360;28;20032;-86
2021/03/14 07:42:45;;;;;;;0.63;0.52;;;;;;;26.45;16.52;96855.00;5073204;28;20041;-86
2021/03/14 07:45:14;;;;;;;1.23;0.70;;;;;;;26.81;16.00;96844.75;5070161;28;20051;-85
2021/03/14 07:47:41;;;;;;;1.15;0.52;;;;;;;27.08;15.79;96856.56;5060001;28;20032;-85
2021/03/14 07:50:17;;;;;;;0.63;0.50;;;;;;;26.53;16.27;96867.47;5059698;28;20047;-86
2021/03/14 07:52:43;;;;;;;0.40;0.38;;;;;;;27.08;16.15;96867.06;5074687;28;20032;-86
2021/03/14 07:55:13;;;;;;;0.52;0.38;;;;;;;27.11;16.06;96861.25;5074848;28;20508;-85
2021/03/14 07:57:51;;;;;;;0.47;0.47;;;;;;;26.79;16.14;96864.19;5069665;28;20036;-85
2021/03/14 08:00:25;;;;;;;1.65;0.40;;;;;;;27.30;15.87;96856.97;5055974;28;20048;-85
2021/03/14 08:02:57;;;;;;;1.38;0.30;;;;;;;26.52;16.33;96860.28;5071663;28;20033;-85
2021/03/14 08:05:45;;;;;;;1.00;0.30;;;;;;;27.36;15.54;96857.06;5055701;28;20041;-85
2021/03/14 08:08:13;;;;;;;0.30;0.22;;;;;;;27.74;15.39;96868.28;5069312;28;20059;-86
2021/03/14 08:10:44;;;;;;;0.75;0.47;;;;;;;27.64;14.98;96864.00;5074462;28;20032;-86
2021/03/14 08:13:28;;;;;;;;;;;;;;;27.42;15.15;96870.03;5076112;28;20128;-87
2021/03/14 08:16:00;;;;;;;0.52;0.40;;;;;;;27.30;15.34;96870.28;5075405;28;20366;-85
2021/03/14 08:18:41;;;;;;;1.77;0.30;;;;;;;26.95;15.55;96880.63;5072673;28;20398;-85
2021/03/14 08:21:19;;;;;;;0.70;0.40;;;;;;;26.18;16.47;96882.53;5085468;28;20048;-86
2021/03/14 08:23:47;;;;;;;0.82;0.45;;;;;;;26.35;16.24;96895.72;5074984;28;20052;-87
2021/03/14 08:26:21;;;;;;;0.60;0.40;;;;;;;25.99;16.10;96907.13;5071405;28;20067;-87
2021/03/14 08:28:54;;;;;;;0.95;0.38;;;;;;;26.56;15.99;96910.75;5070194;28;20033;-87
2021/03/14 08:31:53;;;;;;;0.43;0.30;;;;;;;27.26;16.22;96909.94;5063638;28;20025;-87
2021/03/14 08:34:32;;;;;;;0.57;0.30;;;;;;;27.54;15.91;96910.47;5060610;28;20033;-87
2021/03/14 08:36:59;;;;;;;1.30;0.32;;;;;;;26.73;16.22;96897.81;5056457;28;20542;-87
2021/03/14 08:39:30;;;;;;;0.95;0.45;;;;;;;26.86;16.10;96908.88;5054686;28;20091;-87
2021/03/14 08:41:57;;;;;;;;;;;;;;;26.83;15.74;96901.38;5057488;28;20467;-88
2021/03/14 08:44:43;;;;;;;1.08;0.40;;;;;;;26.82;16.35;96899.81;5061299;28;20273;-87
2021/03/14 08:47:16;;;;;;;1.52;0.50;;;;;;;25.98;16.54;96899.94;5073033;28;20108;-87
2021/03/14 08:49:50;;;;;;;1.38;0.40;;;;;;;26.25;16.90;96902.69;5055761;28;20431;-88
2021/03/14 08:52:17;;;;;;;0.40;0.30;;;;;;;27.07;16.34;96899.31;5073789;28;20483;-87
2021/03/14 08:54:52;;;;;;;0.73;0.40;;;;;;;26.16;17.02;96899.13;5074351;28;20114;-87
2021/03/14 08:57:18;;;;;;;3.60;0.57;;;;;;;25.98;17.02;96888.69;5063073;28;20035;-86
2021/03/14 08:59:58;;;;;;;1.80;0.70;;;;;;;25.26;17.11;96896.06;5072866;28;20262;-88
2021/03/14 09:02:28;;;;;;;0.80;0.30;;;;;;;26.46;16.98;96906.47;5074935;28;20031;-86
2021/03/14 09:05:08;;;;;;;0.60;0.57;;;;;;;25.15;17.64;96909.81;5072868;28;20038;-86
2021/03/14 09:07:35;;;;;;;0.55;0.43;;;;;;;25.17;17.69;96906.53;5069332;28;20279;-87
2021/03/14 09:10:18;;;;;;;0.47;0.43;;;;;;;25.98;16.94;96906.34;5072416;28;20391;-86
2021/03/14 09:12:56;;;;;;;0.88;0.52;;;;;;;25.25;17.56;96900.13;5071866;28;20036;-86
2021/03/14 09:15:22;;;;;;;1.02;0.65;;;;;;;25.39;17.20;96904.34;5062522;28;20029;-86
2021/03/14 09:17:48;;;;;;;0.88;0.40;;;;;;;24.56;17.86;96893.53;5061004;28;20120;-85
2021/03/14 09:20:16;;;;;;;0.98;0.45;;;;;;;24.15;17.61;96906.09;5063444;28;20571;-86
2021/03/14 09:22:43;;;;;;;0.88;0.38;;;;;;;23.70;18.71;96905.88;5063731;28;20020;-86
2021/03/14 09:25:14;;;;;;;1.67;0.40;;;;;;;23.33;18.31;96899.25;5066260;28;20045;-87
2021/03/14 09:27:43;;;;;;;0.55;0.40;;;;;;;22.59;19.93;96901.91;5065267;28;20062;-86
2021/03/14 09:30:14;;;;;;;1.27;0.60;;;;;;;23.10;19.02;96908.13;5065388;28;20033;-85
2021/03/14 09:32:49;;;;;;;3.05;0.95;;;;;;;22.86;19.97;96907.78;5068609;28;20473;-86
2021/03/14 09:35:22;;;;;;;1.00;0.70;;;;;;;21.51;20.72;96907.78;5064054;28;20060;-87
2021/03/14 09:37:54;;;;;;;1.05;0.60;;;;;;;22.40;19.78;96920.53;5073626;28;20107;-86
2021/03/14 09:40:32;;;;;;;0.95;0.60;;;;;;;21.06;21.26;96921.88;5072238;28;20032;-86
2021/03/14 09:43:07;;;;;;;2.78;1.27;;;;;;;21.70;20.29;96912.41;5070816;28;20508;-86
2021/03/14 09:45:34;;;;;;;1.23;0.90;;;;;;;22.72;19.74;96924.28;5062873;28;20064;-88
2021/03/14 09:48:07;;;;;;;2.13;0.80;;;;;;;23.54;19.26;96917.31;5068805;28;20111;-87
2021/03/14 09:50:38;;;;;;;1.00;0.50;;;;;;;23.58;18.98;96917.94;5072254;28;20052;-87
2021/03/14 09:53:06;;;;;;;1.17;0.60;;;;;;;22.07;20.10;96924.03;5067550;28;20066;-88
2021/03/14 09:55:42;;;;;;;2.38;0.75;;;;;;;22.71;20.03;96934.69;5072741;28;20028;-87
2021/03/14 09:58:13;;;;;;;2.40;0.77;;;;;;;23.56;18.73;96932.41;5072705;28;20504;-88
2021/03/14 10:00:41;;;;;;;2.05;0.82;;;;;;;21.75;20.47;96936.19;5071004;28;20071;-87
2021/03/14 10:03:12;;;;;;;1.40;0.60;;;;;;;22.72;19.80;96947.44;5072665;28;20033;-87
2021/03/14 10:05:46;;;;;;;0.95;0.60;;;;;;;23.18;19.23;96949.41;5071195;28;20500;-88
2021/03/14 10:08:20;;;;;;;1.05;0.65;;;;;;;23.74;18.37;96940.13;5073972;28;20392;-87
2021/03/14 10:10:49;;;;;;;1.52;0.85;;;;;;;22.59;20.31;96953.03;5071738;28;20107;-88
2021/03/14 10:13:16;;;;;;;0.75;0.60;;;;;;;22.75;20.09;96956.97;5071710;28;20043;-89
2021/03/14 10:15:43;;;;;;;3.92;1.00;;;;;;;22.23;20.16;96957.47;5073530;28;20155;-88
2021/03/14 10:18:10;;;;;;;2.25;0.70;;;;;;;22.26;20.56;96985.31;5070748;28;20028;-88
2021/03/14 10:20:37;;;;;;;1.65;0.73;;;;;;;22.98;19.97;96973.34;5068215;28;20036;-86
2021/03/14 10:23:06;;;;;;;0.90;0.60;;;;;;;23.41;19.53;96978.25;5070542;28;20032;-86
2021/03/14 10:25:35;;;;;;;1.63;0.82;;;;;;;25.00;18.00;96962.25;5069609;28;20036;-86
2021/03/14 10:28:13;;;;;;;1.52;0.90;;;;;;;24.24;18.09;96967.81;5072538;28;20028;-88
2021/03/14 10:30:43;;;;;;;2.50;0.90;;;;;;;24.02;18.49;96975.47;5071020;28;20042;-88
2021/03/14 10:33:11;;;;;;;1.73;0.75;;;;;;;23.96;18.13;96980.91;5072043;28;20052;-88
2021/03/14 10:35:38;;;;;;;1.80;0.80;;;;;;;24.11;18.13;96983.94;5071314;28;20472;-86
2021/03/14 10:38:13;;;;;;;1.67;0.80;;;;;;;24.13;18.44;96975.88;5069494;28;20056;-87
2021/03/14 10:40:40;;;;;;;1.70;0.93;;;;;;;24.38;17.83;96974.88;5068465;28;20043;-87
2021/03/14 10:43:26;;;;;;;1.52;0.82;;;;;;;24.31;17.74;96977.97;5067013;28;20119;-87
2021/03/14 10:45:53;;;;;;;0.98;0.73;;;;;;;25.71;16.89;96984.41;5071877;28;20528;-86
2021/03/14 10:48:27;;;;;;;1.63;1.00;;;;;;;26.24;16.45;96976.28;5072012;28;20426;-88
2021/03/14 10:51:05;;;;;;;1.58;0.60;;;;;;;25.33;17.23;96985.66;5071251;28;20029;-88
2021/03/14 10:53:31;;;;;;;1.70;0.80;;;;;;;25.31;17.27;96988.16;5071381;28;20032;-88
2021/03/14 10:56:08;;;;;;;1.42;0.88;;;;;;;25.01;17.53;96985.50;5070380;28;20040;-88
2021/03/14 10:58:40;;;;;;;1.83;0.80;;;;;;;25.28;17.46;96999.53;5071558;28;20040;-88
2021/03/14 11:01:09;;;;;;;2.25;0.95;;;;;;;24.90;17.71;97005.59;5059083;28;20044;-88
2021/03/14 11:03:40;;;;;;;1.70;0.90;;;;;;;25.05;17.30;97003.75;5055140;28;20056;-89
2021/03/14 11:06:25;;;;;;;2.15;0.90;;;;;;;23.75;18.24;97003.38;5073103;28;20175;-88
2021/03/14 11:08:57;;;;;;;1.98;1.00;;;;;;;24.12;18.03;96998.75;5065312;28;20029;-89
2021/03/14 11:11:36;;;;;;;3.08;1.27;;;;;;;23.92;18.26;97005.47;5061017;28;20041;-96
2021/03/14 11:14:22;;;;;;;2.45;1.15;;;;;;;25.02;17.18;97012.34;5053601;28;20043;-96
2021/03/14 11:17:14;;;;;;;2.90;1.15;;;;;;;24.42;17.48;97017.59;5062757;28;20032;-96
2021/03/14 11:19:45;;;;;;;4.38;1.75;;;;;;;22.74;18.95;97023.31;5086934;28;20511;-94
2021/03/14 11:22:17;;;;;;;1.35;0.60;;;;;;;23.68;18.22;97015.63;5071474;28;20037;-91
2021/03/14 11:24:45;;;;;;;1.85;1.15;;;;;;;23.16;19.00;97018.28;5060812;28;20570;-91
2021/03/14 11:27:11;;;;;;;3.53;1.70;;;;;;;24.00;17.98;96994.78;5072202;28;20083;-91
2021/03/14 11:29:38;;;;;;;6.97;3.92;;;;;;;23.25;17.77;96993.16;5072256;28;20028;-93
2021/03/14 11:32:05;;;;;;;3.05;1.40;;;;;;;24.43;17.56;96999.53;5059778;28;20044;-86
2021/03/14 11:34:31;;;;;;;3.15;1.15;;;;;;;24.16;17.75;96993.78;5063739;28;20036;-92
2021/03/14 11:36:57;;;;;;;3.58;1.92;;;;;;;25.46;15.93;96984.75;5071863;28;20033;-94
2021/03/14 11:39:24;;;;;;;6.60;2.85;;;;;;;26.21;15.82;96983.66;5071418;28;20036;-95
2021/03/14 11:41:50;;;;;;;4.00;2.22;;;;;;;25.75;15.37;96979.38;5069615;28;20043;-96
2021/03/14 11:44:16;;;;;;;7.35;3.45;;;;;;;24.56;16.76;96986.16;5075372;28;20058;-93
2021/03/14 11:46:45;;;;;;;4.53;2.05;;;;;;;24.98;16.52;96978.00;5068436;28;20036;-91